Time;durP1;ratioP1;P1;durP2;ratioP2;P2;SDS_P1;SDS_P2;PMS_P1;PMS_P2;Temp;Humidity;BMP_temperature;BMP_pressure;BME280_temperature;BME280_humidity;BME280_pressure;Samples;Min_cycle;Max_cycle;Signal;HPM_P1;HPM_P2
2022/03/07 00:01:48;;;;;;;15.47;10.33;;;;;;;-0.58;71.79;102705.44;5031116;28;20025;-55
2022/03/07 00:04:16;;;;;;;17.57;11.00;;;;;;;-0.61;72.52;102695.09;5032136;28;20045;-53
2022/03/07 00:06:42;;;;;;;17.77;10.30;;;;;;;-0.71;72.47;102695.34;5032217;28;20049;-53
2022/03/07 00:09:07;;;;;;;18.00;10.60;;;;;;;-0.69;72.32;102697.94;5032269;28;20389;-53
2022/03/07 00:11:34;;;;;;;17.83;10.90;;;;;;;-0.69;72.65;102698.75;5032096;28;20103;-52
2022/03/07 00:13:59;;;;;;;18.77;10.63;;;;;;;-0.73;72.37;102697.13;5025552;28;20415;-55
2022/03/07 00:16:25;;;;;;;15.90;10.23;;;;;;;-0.75;72.26;102687.69;5031640;28;20120;-54
2022/03/07 00:18:50;;;;;;;16.67;10.30;;;;;;;-0.75;72.65;102687.69;5031717;28;20033;-54
2022/03/07 00:21:15;;;;;;;17.50;10.60;;;;;;;-0.77;72.36;102689.44;5031354;28;20048;-53
2022/03/07 00:23:41;;;;;;;16.30;10.50;;;;;;;-0.77;72.82;102695.53;5031522;28;20025;-52
2022/03/07 00:26:06;;;;;;;19.23;11.30;;;;;;;-0.80;72.80;102690.38;5031660;28;20029;-55
2022/03/07 00:28:32;;;;;;;18.43;11.33;;;;;;;-0.84;72.71;102688.78;5030727;28;20034;-52
2022/03/07 00:30:57;;;;;;;18.97;11.03;;;;;;;-0.85;72.91;102694.84;5031514;28;20029;-52
2022/03/07 00:33:23;;;;;;;17.50;10.73;;;;;;;-0.86;73.17;102685.34;5032953;28;20036;-55
2022/03/07 00:35:48;;;;;;;19.47;11.33;;;;;;;-0.84;73.17;102707.00;5031446;28;20033;-53
2022/03/07 00:38:14;;;;;;;17.83;11.50;;;;;;;-0.87;72.46;102704.47;5035694;28;20051;-52
2022/03/07 00:40:39;;;;;;;17.50;11.07;;;;;;;-0.91;73.02;102700.22;5037741;28;20032;-54
2022/03/07 00:43:08;;;;;;;17.73;10.97;;;;;;;-0.91;73.35;102703.69;5033298;28;20448;-55
2022/03/07 00:45:34;;;;;;;19.30;11.70;;;;;;;-1.02;72.54;102705.72;5035262;28;20038;-54
2022/03/07 00:47:59;;;;;;;17.83;11.20;;;;;;;-1.03;72.81;102694.44;5035717;28;20064;-51
2022/03/07 00:50:24;;;;;;;18.13;11.50;;;;;;;-1.00;73.44;102693.50;5034298;28;20051;-54
2022/03/07 00:52:50;;;;;;;17.50;11.47;;;;;;;-1.02;73.39;102696.19;5035029;28;20107;-55
2022/03/07 00:55:15;;;;;;;20.27;11.67;;;;;;;-1.02;73.32;102701.38;5035739;28;20384;-53
2022/03/07 00:57:40;;;;;;;19.50;12.30;;;;;;;-1.04;73.62;102702.31;5034994;28;20029;-54
2022/03/07 01:00:06;;;;;;;19.47;11.77;;;;;;;-1.10;73.38;102692.91;5035299;28;20040;-54
2022/03/07 01:02:32;;;;;;;18.97;12.50;;;;;;;-1.11;73.31;102704.22;5035095;28;20044;-54
2022/03/07 01:04:57;;;;;;;19.17;11.17;;;;;;;-1.07;73.16;102705.84;5034511;28;20037;-56
2022/03/07 01:07:22;;;;;;;20.67;12.73;;;;;;;-1.13;73.69;102709.44;5034188;28;20436;-54
2022/03/07 01:09:47;;;;;;;19.13;11.80;;;;;;;-1.16;74.10;102708.66;5035231;28;20099;-54
2022/03/07 01:12:13;;;;;;;19.20;11.37;;;;;;;-1.17;74.07;102709.56;5034766;28;20041;-54
2022/03/07 01:14:38;;;;;;;21.37;12.10;;;;;;;-1.21;73.64;102714.00;5034973;28;20044;-54
2022/03/07 01:17:04;;;;;;;20.53;12.13;;;;;;;-1.23;74.07;102718.41;5034605;28;20115;-54
2022/03/07 01:19:29;;;;;;;19.97;11.13;;;;;;;-1.25;74.10;102710.63;5034995;28;20083;-53
2022/03/07 01:21:54;;;;;;;16.83;10.73;;;;;;;-1.22;73.70;102710.53;5035085;28;20056;-53
2022/03/07 01:24:19;;;;;;;16.93;10.87;;;;;;;-1.27;73.76;102702.00;5035000;28;20121;-53
2022/03/07 01:26:46;;;;;;;19.33;11.30;;;;;;;-1.31;73.99;102705.56;5035033;28;20160;-54
2022/03/07 01:29:12;;;;;;;20.07;11.73;;;;;;;-1.32;73.87;102703.88;5035016;28;20037;-54
2022/03/07 01:31:37;;;;;;;20.57;11.27;;;;;;;-1.33;73.88;102702.16;5035395;28;20040;-53
2022/03/07 01:34:02;;;;;;;18.33;11.03;;;;;;;-1.35;74.39;102706.53;5034910;28;20515;-55
2022/03/07 01:36:28;;;;;;;18.87;11.40;;;;;;;-1.38;74.12;102704.00;5035258;28;20022;-53
2022/03/07 01:38:53;;;;;;;17.53;10.87;;;;;;;-1.39;74.24;102697.94;5034974;28;20037;-53
2022/03/07 01:41:18;;;;;;;19.73;11.33;;;;;;;-1.43;74.22;102701.50;5034905;28;20026;-53
2022/03/07 01:43:43;;;;;;;21.20;11.80;;;;;;;-1.44;74.48;102701.56;5033609;28;20500;-53
2022/03/07 01:46:09;;;;;;;18.07;11.17;;;;;;;-1.45;74.44;102700.69;5034226;28;20053;-55
2022/03/07 01:48:35;;;;;;;21.43;11.20;;;;;;;-1.50;74.37;102705.16;5033440;28;20498;-53
2022/03/07 01:51:01;;;;;;;16.97;11.00;;;;;;;-1.53;75.01;102700.88;5033467;28;20029;-54
2022/03/07 01:53:27;;;;;;;17.70;11.47;;;;;;;-1.56;74.90;102700.97;5030628;28;20029;-53
2022/03/07 01:55:54;;;;;;;19.03;11.53;;;;;;;-1.54;75.19;102698.28;5033047;28;20033;-53
2022/03/07 01:58:20;;;;;;;19.13;11.47;;;;;;;-1.54;75.55;102693.97;5033134;28;20547;-53
2022/03/07 02:00:46;;;;;;;19.17;11.10;;;;;;;-1.61;74.97;102692.41;5033948;28;20160;-52
2022/03/07 02:03:11;;;;;;;18.37;10.83;;;;;;;-1.68;75.09;102696.03;5033512;28;20029;-54
2022/03/07 02:05:37;;;;;;;17.17;11.10;;;;;;;-1.73;74.69;102692.69;5033606;28;20605;-54
2022/03/07 02:08:02;;;;;;;16.67;10.80;;;;;;;-1.78;75.50;102691.03;5030530;28;20041;-51
2022/03/07 02:10:28;;;;;;;17.57;11.20;;;;;;;-1.79;75.91;102693.66;5033403;28;20049;-54
2022/03/07 02:12:54;;;;;;;17.87;11.63;;;;;;;-1.82;75.90;102681.59;5032494;28;20060;-53
2022/03/07 02:15:19;;;;;;;18.87;11.30;;;;;;;-1.82;76.20;102683.34;5031886;28;20037;-53
2022/03/07 02:17:45;;;;;;;18.17;11.70;;;;;;;-1.81;75.78;102685.91;5031228;28;20065;-53
2022/03/07 02:20:11;;;;;;;18.10;11.67;;;;;;;-1.79;75.71;102689.31;5033344;28;20156;-54
2022/03/07 02:22:36;;;;;;;18.47;11.77;;;;;;;-1.80;75.97;102682.41;5032854;28;20116;-54
2022/03/07 02:25:02;;;;;;;20.83;12.07;;;;;;;-1.81;76.39;102680.72;5033532;28;20411;-53
2022/03/07 02:27:28;;;;;;;18.87;11.67;;;;;;;-1.81;75.98;102682.44;5032361;28;20036;-53
2022/03/07 02:29:53;;;;;;;21.20;12.03;;;;;;;-1.81;75.67;102674.66;5033885;28;20061;-55
2022/03/07 02:32:20;;;;;;;20.10;12.13;;;;;;;-1.80;75.81;102674.63;5033582;28;20030;-50
2022/03/07 02:34:46;;;;;;;21.20;11.80;;;;;;;-1.84;76.11;102675.56;5033852;28;20026;-54
2022/03/07 02:37:12;;;;;;;19.43;12.10;;;;;;;-1.84;76.27;102670.38;5033500;28;20040;-54
2022/03/07 02:39:37;;;;;;;18.63;12.13;;;;;;;-1.86;76.43;102671.28;5033043;28;20121;-54
2022/03/07 02:42:04;;;;;;;19.60;12.37;;;;;;;-1.89;76.16;102680.00;5024242;28;20618;-53
2022/03/07 02:44:29;;;;;;;19.73;12.27;;;;;;;-1.94;76.42;102679.25;5026146;28;20034;-53
2022/03/07 02:46:54;;;;;;;20.27;12.47;;;;;;;-1.92;76.24;102677.50;5024042;28;20037;-54
2022/03/07 02:49:20;;;;;;;20.03;12.23;;;;;;;-1.95;76.46;102672.34;5033333;28;20029;-55
2022/03/07 02:51:45;;;;;;;20.67;12.40;;;;;;;-1.95;76.59;102668.03;5031127;28;20576;-53
2022/03/07 02:54:11;;;;;;;20.97;12.93;;;;;;;-1.94;76.57;102681.84;5032403;28;20033;-55
2022/03/07 02:56:37;;;;;;;20.23;12.57;;;;;;;-1.96;76.61;102674.13;5033352;28;20017;-55
2022/03/07 02:59:03;;;;;;;19.10;11.90;;;;;;;-1.96;76.17;102678.44;5033435;28;20125;-54
2022/03/07 03:01:28;;;;;;;20.43;12.70;;;;;;;-1.97;76.37;102676.75;5031451;28;20707;-55
2022/03/07 03:03:54;;;;;;;20.63;12.60;;;;;;;-2.00;76.89;102669.00;5032622;28;20472;-54
2022/03/07 03:06:19;;;;;;;18.77;12.13;;;;;;;-1.99;76.78;102670.72;5031944;28;20400;-52
2022/03/07 03:08:44;;;;;;;19.37;13.50;;;;;;;-2.01;77.14;102677.69;5032513;28;20062;-54
2022/03/07 03:11:11;;;;;;;21.17;13.67;;;;;;;-2.07;77.09;102666.53;5032954;28;20036;-54
2022/03/07 03:13:36;;;;;;;22.27;13.53;;;;;;;-2.04;77.28;102673.41;5032670;28;20025;-54
2022/03/07 03:16:02;;;;;;;20.57;12.87;;;;;;;-2.04;77.04;102674.28;5032765;28;20025;-54
2022/03/07 03:18:27;;;;;;;20.83;13.13;;;;;;;-2.06;77.11;102670.00;5032727;28;20408;-54
2022/03/07 03:20:52;;;;;;;23.07;13.10;;;;;;;-2.08;77.15;102672.63;5033158;28;20051;-54
2022/03/07 03:23:20;;;;;;;22.50;13.63;;;;;;;-2.16;77.32;102661.56;5031902;28;20407;-54
2022/03/07 03:25:46;;;;;;;20.70;13.17;;;;;;;-2.09;77.26;102670.91;5031882;28;20025;-54
2022/03/07 03:28:12;;;;;;;20.37;13.43;;;;;;;-2.10;77.72;102669.22;5032449;28;20029;-53
2022/03/07 03:30:37;;;;;;;20.50;13.87;;;;;;;-2.12;77.66;102676.16;5032691;28;20032;-55
2022/03/07 03:33:03;;;;;;;21.47;13.73;;;;;;;-2.15;77.47;102673.66;5032707;28;20033;-53
2022/03/07 03:35:28;;;;;;;22.50;13.50;;;;;;;-2.13;77.63;102679.66;5032731;28;20096;-54
2022/03/07 03:37:54;;;;;;;22.47;13.33;;;;;;;-2.13;77.67;102674.47;5032844;28;20493;-55
2022/03/07 03:40:20;;;;;;;22.67;14.13;;;;;;;-2.18;78.00;102671.97;5032608;28;20477;-53
2022/03/07 03:42:45;;;;;;;23.67;14.20;;;;;;;-2.19;77.79;102677.19;5032719;28;20033;-54
2022/03/07 03:45:11;;;;;;;23.30;13.80;;;;;;;-2.21;77.70;102681.59;5032117;28;20075;-55
2022/03/07 03:47:42;;;;;;;23.37;13.37;;;;;;;-2.25;78.12;102670.41;5031586;28;20030;-54
2022/03/07 03:50:11;;;;;;;22.23;13.20;;;;;;;-2.28;77.77;102680.00;5031989;28;20022;-54
2022/03/07 03:52:38;;;;;;;21.33;13.53;;;;;;;-2.32;78.07;102685.25;5032024;28;20041;-54
2022/03/07 03:55:06;;;;;;;21.60;14.30;;;;;;;-2.34;78.02;102686.16;5036138;28;20471;-51
2022/03/07 03:57:31;;;;;;;22.33;13.97;;;;;;;-2.35;78.04;102685.34;5032566;28;20104;-53
2022/03/07 03:59:57;;;;;;;22.60;14.20;;;;;;;-2.37;77.99;102686.25;5036263;28;20150;-53
2022/03/07 04:02:22;;;;;;;23.83;14.50;;;;;;;-2.36;78.06;102683.59;5032115;28;20044;-55
2022/03/07 04:04:48;;;;;;;20.07;13.70;;;;;;;-2.41;78.24;102690.66;5031350;28;20045;-55
2022/03/07 04:07:13;;;;;;;23.50;13.93;;;;;;;-2.37;78.21;102692.28;5032015;28;20544;-52
2022/03/07 04:09:39;;;;;;;22.93;14.20;;;;;;;-2.41;78.49;102689.78;5031965;28;20124;-50
2022/03/07 04:12:05;;;;;;;22.87;14.43;;;;;;;-2.42;78.36;102694.13;5032208;28;20508;-51
2022/03/07 04:14:30;;;;;;;27.90;14.80;;;;;;;-2.43;78.69;102687.22;5031658;28;20548;-54
2022/03/07 04:16:56;;;;;;;23.27;14.87;;;;;;;-2.46;78.53;102687.28;5030768;28;20105;-52
2022/03/07 04:19:21;;;;;;;21.23;13.97;;;;;;;-2.45;78.77;102694.19;5032377;28;20084;-53
2022/03/07 04:21:47;;;;;;;23.07;14.73;;;;;;;-2.46;78.61;102690.72;5031774;28;20038;-51
2022/03/07 04:24:13;;;;;;;21.77;14.03;;;;;;;-2.47;78.59;102680.38;5031519;28;20041;-52
2022/03/07 04:26:40;;;;;;;25.47;14.70;;;;;;;-2.48;78.95;102683.84;5029977;28;20017;-53
2022/03/07 04:29:07;;;;;;;23.17;14.37;;;;;;;-2.51;79.30;102678.72;5032326;28;20017;-53
2022/03/07 04:31:34;;;;;;;24.43;15.30;;;;;;;-2.49;79.36;102687.34;5029871;28;20381;-53
2022/03/07 04:33:59;;;;;;;23.27;14.27;;;;;;;-2.49;79.14;102682.13;5030326;28;20361;-54
2022/03/07 04:36:25;;;;;;;22.63;14.90;;;;;;;-2.49;79.39;102682.13;5031400;28;20108;-54
2022/03/07 04:38:50;;;;;;;24.50;14.63;;;;;;;-2.48;79.16;102681.25;5031915;28;20103;-51
2022/03/07 04:41:15;;;;;;;22.97;14.17;;;;;;;-2.48;79.24;102674.31;5031732;28;20029;-54
2022/03/07 04:43:41;;;;;;;24.37;14.90;;;;;;;-2.53;79.63;102677.91;5031935;28;20033;-53
2022/03/07 04:46:10;;;;;;;27.30;15.57;;;;;;;-2.50;79.68;102685.63;5031156;28;20040;-52
2022/03/07 04:48:36;;;;;;;23.30;15.23;;;;;;;-2.53;79.52;102680.50;5032093;28;20060;-53
2022/03/07 04:51:02;;;;;;;23.07;14.63;;;;;;;-2.51;79.53;102684.75;5027175;28;20069;-54
2022/03/07 04:53:27;;;;;;;24.30;15.30;;;;;;;-2.53;79.62;102680.50;5020949;28;20030;-54
2022/03/07 04:55:54;;;;;;;27.87;14.63;;;;;;;-2.54;79.29;102683.97;5025044;28;20041;-54
2022/03/07 04:58:20;;;;;;;24.20;14.93;;;;;;;-2.55;79.62;102687.47;5031067;28;20373;-53
2022/03/07 05:00:45;;;;;;;20.93;14.17;;;;;;;-2.58;79.55;102685.78;5028579;28;20100;-50
2022/03/07 05:03:11;;;;;;;25.10;15.53;;;;;;;-2.63;79.75;102685.00;5025024;28;20112;-50
2022/03/07 05:05:36;;;;;;;23.47;15.03;;;;;;;-2.65;79.93;102685.06;5030377;28;20071;-53
2022/03/07 05:08:02;;;;;;;24.87;14.80;;;;;;;-2.68;79.63;102687.69;5031993;28;20054;-54
2022/03/07 05:10:27;;;;;;;23.30;14.83;;;;;;;-2.65;79.65;102692.84;5031173;28;20036;-53
2022/03/07 05:12:52;;;;;;;24.57;15.53;;;;;;;-2.66;80.00;102680.75;5031436;28;20033;-53
2022/03/07 05:15:17;;;;;;;23.40;14.83;;;;;;;-2.66;79.66;102683.34;5030054;28;20029;-52
2022/03/07 05:17:53;;;;;;;24.10;15.87;;;;;;;-2.71;80.02;102672.19;5031653;28;20037;-52
2022/03/07 05:20:19;;;;;;;24.77;15.80;;;;;;;-2.72;79.77;102676.50;5030933;28;20063;-52
2022/03/07 05:22:44;;;;;;;24.33;15.43;;;;;;;-2.74;79.82;102680.03;5030937;28;20026;-54
2022/03/07 05:25:11;;;;;;;23.57;14.67;;;;;;;-2.73;80.37;102685.19;5031269;28;20084;-53
2022/03/07 05:27:38;;;;;;;25.43;15.20;;;;;;;-2.73;79.92;102679.13;5031445;28;20037;-53
2022/03/07 05:30:04;;;;;;;27.40;16.30;;;;;;;-2.74;80.29;102682.63;5033735;28;20096;-52
2022/03/07 05:32:30;;;;;;;29.80;17.73;;;;;;;-2.74;80.20;102674.81;5034686;28;20067;-53
2022/03/07 05:34:55;;;;;;;26.43;17.10;;;;;;;-2.73;80.26;102679.13;5034739;28;20072;-51
2022/03/07 05:37:20;;;;;;;24.77;15.93;;;;;;;-2.72;80.54;102686.03;5035174;28;20056;-52
2022/03/07 05:39:46;;;;;;;26.80;16.47;;;;;;;-2.73;80.48;102682.59;5033377;28;20033;-50
2022/03/07 05:42:11;;;;;;;26.10;16.10;;;;;;;-2.73;80.00;102686.91;5035066;28;20507;-54
2022/03/07 05:44:36;;;;;;;25.87;16.77;;;;;;;-2.74;80.29;102687.81;5034437;28;20025;-54
2022/03/07 05:47:02;;;;;;;24.20;16.27;;;;;;;-2.74;80.38;102687.81;5034827;28;20057;-51
2022/03/07 05:49:27;;;;;;;26.83;15.93;;;;;;;-2.74;80.10;102698.19;5033828;28;20033;-53
2022/03/07 05:51:52;;;;;;;24.27;15.27;;;;;;;-2.76;80.47;102694.78;5027602;28;20042;-53
2022/03/07 05:54:18;;;;;;;24.27;16.17;;;;;;;-2.74;80.53;102687.81;5033886;28;20592;-52
2022/03/07 05:56:43;;;;;;;25.77;16.63;;;;;;;-2.76;80.37;102687.00;5046805;28;20025;-53
2022/03/07 05:59:08;;;;;;;24.47;16.03;;;;;;;-2.79;80.75;102685.31;5033474;28;20025;-52
2022/03/07 06:01:34;;;;;;;28.10;16.47;;;;;;;-2.77;80.81;102688.72;5031652;28;20031;-53
2022/03/07 06:03:59;;;;;;;26.67;16.37;;;;;;;-2.77;80.95;102693.06;5034525;28;20099;-52
2022/03/07 06:06:25;;;;;;;27.67;16.57;;;;;;;-2.81;80.71;102699.19;5034566;28;20052;-52
2022/03/07 06:08:51;;;;;;;24.57;16.57;;;;;;;-2.82;80.69;102706.13;5021126;28;20030;-54
2022/03/07 06:11:16;;;;;;;26.97;17.07;;;;;;;-2.81;80.86;102707.00;5027750;28;20488;-54
2022/03/07 06:13:41;;;;;;;29.57;17.60;;;;;;;-2.85;80.97;102712.22;5032805;28;20033;-54
2022/03/07 06:16:06;;;;;;;24.00;17.00;;;;;;;-2.84;81.31;102713.97;5032727;28;20033;-52
2022/03/07 06:18:32;;;;;;;26.00;17.80;;;;;;;-2.85;81.18;102712.22;5034282;28;20042;-52
2022/03/07 06:20:57;;;;;;;26.10;16.90;;;;;;;-2.81;81.38;102717.38;5034064;28;20454;-53
2022/03/07 06:23:23;;;;;;;27.10;17.60;;;;;;;-2.82;80.94;102710.47;5033914;28;20101;-53
2022/03/07 06:25:49;;;;;;;26.13;17.53;;;;;;;-2.84;81.48;102719.16;5033429;28;20037;-50
2022/03/07 06:28:14;;;;;;;28.37;18.73;;;;;;;-2.85;81.55;102722.63;5034340;28;20089;-50
2022/03/07 06:30:40;;;;;;;29.07;18.27;;;;;;;-2.80;81.48;102724.28;5033712;28;20029;-53
2022/03/07 06:33:05;;;;;;;27.60;18.67;;;;;;;-2.82;81.37;102732.09;5032255;28;20151;-54
2022/03/07 06:35:30;;;;;;;28.80;18.87;;;;;;;-2.79;81.36;102726.00;5033392;28;20380;-51
2022/03/07 06:37:57;;;;;;;28.13;18.03;;;;;;;-2.76;81.42;102725.94;5026965;28;20025;-54
2022/03/07 06:40:23;;;;;;;28.63;18.63;;;;;;;-2.76;81.55;102731.13;5024802;28;20040;-53
2022/03/07 06:42:49;;;;;;;26.37;17.87;;;;;;;-2.74;81.57;102732.84;5028590;28;20041;-51
2022/03/07 06:45:16;;;;;;;29.37;18.43;;;;;;;-2.72;81.34;102737.97;5027507;28;20029;-49
2022/03/07 06:47:43;;;;;;;27.67;18.60;;;;;;;-2.68;81.40;102734.44;5022012;28;20457;-51
2022/03/07 06:50:09;;;;;;;29.47;18.33;;;;;;;-2.70;81.77;102731.03;5025738;28;20087;-52
2022/03/07 06:52:34;;;;;;;28.63;18.77;;;;;;;-2.70;81.55;102736.22;5024510;28;20029;-51
2022/03/07 06:55:00;;;;;;;27.60;19.07;;;;;;;-2.66;81.53;102743.09;5038440;28;20029;-55
2022/03/07 06:57:25;;;;;;;28.33;18.80;;;;;;;-2.65;81.54;102739.59;5025039;28;20033;-53
2022/03/07 06:59:51;;;;;;;29.70;19.00;;;;;;;-2.61;81.47;102746.44;5026765;28;20025;-53
2022/03/07 07:02:16;;;;;;;28.83;18.50;;;;;;;-2.59;81.16;102734.28;5029368;28;20487;-53
2022/03/07 07:04:42;;;;;;;27.67;18.43;;;;;;;-2.53;81.63;102742.84;5023576;28;20057;-52
2022/03/07 07:07:07;;;;;;;29.97;19.40;;;;;;;-2.51;80.83;102743.69;5026192;28;20135;-52
2022/03/07 07:09:32;;;;;;;28.73;19.23;;;;;;;-2.47;81.26;102747.94;5026198;28;20049;-53
2022/03/07 07:11:58;;;;;;;27.77;18.93;;;;;;;-2.42;81.30;102740.88;5028123;28;20040;-50
2022/03/07 07:14:23;;;;;;;28.27;19.43;;;;;;;-2.42;81.07;102746.09;5031474;28;20033;-52
2022/03/07 07:16:48;;;;;;;27.70;18.70;;;;;;;-2.34;81.03;102732.94;5030807;28;20072;-49
2022/03/07 07:19:14;;;;;;;27.13;18.70;;;;;;;-2.30;80.64;102740.69;5024425;28;20488;-50
2022/03/07 07:21:40;;;;;;;29.73;19.37;;;;;;;-2.23;80.31;102738.78;5028114;28;20033;-53
2022/03/07 07:24:06;;;;;;;29.63;19.43;;;;;;;-2.20;80.54;102737.88;5020719;28;20037;-53
2022/03/07 07:26:31;;;;;;;29.17;20.00;;;;;;;-2.14;81.01;102729.94;5026898;28;20029;-52
2022/03/07 07:28:56;;;;;;;29.53;19.63;;;;;;;-2.10;80.23;102731.59;5032352;28;20104;-54
2022/03/07 07:31:22;;;;;;;29.67;20.07;;;;;;;-2.01;80.06;102735.75;5027138;28;20033;-53
2022/03/07 07:33:47;;;;;;;27.73;18.93;;;;;;;-1.94;79.72;102731.25;5021842;28;20041;-56
2022/03/07 07:36:12;;;;;;;29.07;19.77;;;;;;;-1.89;79.87;102729.44;5023287;28;20037;-54
2022/03/07 07:38:37;;;;;;;29.63;18.60;;;;;;;-1.82;79.34;102725.78;5020517;28;20420;-54
2022/03/07 07:41:03;;;;;;;29.20;18.77;;;;;;;-1.76;79.76;102736.06;5025808;28;20079;-53
2022/03/07 07:43:28;;;;;;;28.60;18.83;;;;;;;-1.68;79.67;102737.66;5021531;28;20049;-53
2022/03/07 07:45:53;;;;;;;26.87;18.83;;;;;;;-1.61;79.54;102744.44;5023489;28;20061;-53
2022/03/07 07:48:19;;;;;;;27.10;17.63;;;;;;;-1.54;79.05;102735.59;5023240;28;20041;-52
2022/03/07 07:50:44;;;;;;;29.37;19.23;;;;;;;-1.47;79.09;102746.72;5022316;28;20037;-51
2022/03/07 07:53:09;;;;;;;27.90;18.90;;;;;;;-1.38;78.51;102743.91;5025110;28;20034;-53
2022/03/07 07:55:35;;;;;;;26.30;18.83;;;;;;;-1.32;78.17;102745.50;5019872;28;20039;-56
2022/03/07 07:58:00;;;;;;;27.93;18.07;;;;;;;-1.26;78.42;102747.97;5025778;28;20088;-56
2022/03/07 08:00:27;;;;;;;26.70;18.57;;;;;;;-1.18;78.47;102746.91;5024178;28;20072;-54
2022/03/07 08:02:52;;;;;;;26.50;17.73;;;;;;;-1.11;77.95;102754.56;5025221;28;20138;-54
2022/03/07 08:05:18;;;;;;;25.40;17.07;;;;;;;-1.05;77.85;102756.13;5026643;28;20109;-54
2022/03/07 08:07:44;;;;;;;25.70;17.30;;;;;;;-1.00;76.99;102746.47;5023113;28;20061;-54
2022/03/07 08:10:15;;;;;;;26.13;17.20;;;;;;;-0.92;76.36;102748.00;5022401;28;20049;-55
2022/03/07 08:12:40;;;;;;;23.90;16.00;;;;;;;-0.84;76.26;102751.28;5023211;28;20038;-55
2022/03/07 08:15:11;;;;;;;26.10;15.93;;;;;;;-0.80;76.08;102745.09;5022162;28;20100;-55
2022/03/07 08:17:46;;;;;;;25.87;16.50;;;;;;;-0.72;75.71;102745.75;5015872;28;20037;-55
2022/03/07 08:20:13;;;;;;;25.50;16.53;;;;;;;-0.61;75.67;102757.63;5022096;28;20033;-56
2022/03/07 08:22:38;;;;;;;23.53;15.87;;;;;;;-0.52;75.24;102753.91;5031206;28;20120;-55
2022/03/07 08:25:04;;;;;;;25.27;15.90;;;;;;;-0.45;74.71;102753.72;5027711;28;20101;-57
2022/03/07 08:27:30;;;;;;;23.00;15.20;;;;;;;-0.37;74.58;102744.81;5021597;28;20038;-55
2022/03/07 08:29:55;;;;;;;24.67;15.50;;;;;;;-0.29;73.53;102750.72;5024967;28;20056;-56
2022/03/07 08:32:20;;;;;;;24.73;15.90;;;;;;;-0.19;73.25;102751.28;5024644;28;20029;-55
2022/03/07 08:34:46;;;;;;;23.20;15.17;;;;;;;-0.09;73.88;102749.28;5021485;28;20048;-54
2022/03/07 08:37:11;;;;;;;23.67;15.60;;;;;;;-0.01;73.08;102747.28;5024270;28;20026;-55
2022/03/07 08:39:36;;;;;;;21.73;14.77;;;;;;;0.08;72.96;102754.00;5024912;28;20029;-54
2022/03/07 08:42:02;;;;;;;20.93;14.47;;;;;;;0.16;72.11;102748.56;5027163;28;20403;-54
2022/03/07 08:44:27;;;;;;;20.20;13.70;;;;;;;0.24;70.14;102751.78;5026347;28;20033;-54
2022/03/07 08:46:52;;;;;;;19.63;13.23;;;;;;;0.32;69.63;102749.81;5022725;28;20026;-56
2022/03/07 08:49:17;;;;;;;22.77;13.30;;;;;;;0.37;68.87;102747.91;5024712;28;20143;-53
2022/03/07 08:51:44;;;;;;;20.13;12.80;;;;;;;0.43;68.62;102746.00;5038545;28;20033;-53
2022/03/07 08:54:10;;;;;;;18.97;12.20;;;;;;;0.52;68.59;102746.56;5017320;28;20026;-54
2022/03/07 08:56:35;;;;;;;21.33;12.53;;;;;;;0.57;68.31;102743.81;5019723;28;20022;-56
2022/03/07 08:59:02;;;;;;;22.27;12.43;;;;;;;0.66;67.58;102743.53;5025375;28;20192;-54
2022/03/07 09:01:27;;;;;;;22.17;12.50;;;;;;;0.73;66.48;102738.09;5022824;28;20026;-54
2022/03/07 09:03:52;;;;;;;21.43;12.73;;;;;;;0.78;67.47;102736.16;5026253;28;20499;-52
2022/03/07 09:06:17;;;;;;;20.47;12.00;;;;;;;0.85;65.94;102742.06;5029068;28;20036;-52
2022/03/07 09:08:43;;;;;;;19.70;11.50;;;;;;;0.88;65.83;102734.13;5025225;28;20112;-56
2022/03/07 09:11:08;;;;;;;16.63;11.43;;;;;;;0.95;65.92;102738.25;5029311;28;20377;-57
2022/03/07 09:13:33;;;;;;;18.53;11.30;;;;;;;1.00;66.13;102730.25;5025058;28;20083;-57
2022/03/07 09:15:59;;;;;;;19.40;11.30;;;;;;;1.06;64.83;102740.50;5027437;28;20037;-57
2022/03/07 09:18:26;;;;;;;18.10;11.07;;;;;;;1.13;65.45;102736.75;5027931;28;20033;-57
2022/03/07 09:20:51;;;;;;;18.83;11.30;;;;;;;1.22;64.97;102734.75;5030870;28;20028;-57
2022/03/07 09:23:17;;;;;;;16.20;10.57;;;;;;;1.29;63.56;102731.84;5028547;28;20033;-58
2022/03/07 09:25:42;;;;;;;17.20;10.30;;;;;;;1.37;64.66;102723.75;5025516;28;20034;-57
2022/03/07 09:28:07;;;;;;;17.03;10.37;;;;;;;1.46;63.23;102728.66;5029710;28;20033;-58
2022/03/07 09:30:33;;;;;;;15.90;10.73;;;;;;;1.57;62.95;102724.78;5029972;28;20477;-58
2022/03/07 09:33:03;;;;;;;14.73;9.30;;;;;;;1.60;60.12;102720.31;5027708;28;20096;-57
2022/03/07 09:35:28;;;;;;;15.87;9.90;;;;;;;1.65;60.54;102722.75;5026475;28;20060;-57
2022/03/07 09:37:54;;;;;;;15.57;9.33;;;;;;;1.69;60.79;102724.34;5024671;28;20429;-57
2022/03/07 09:40:19;;;;;;;14.57;9.60;;;;;;;1.74;60.27;102714.56;5030538;28;20108;-57
2022/03/07 09:42:44;;;;;;;15.30;8.80;;;;;;;1.82;59.65;102718.66;5028200;28;20022;-58
2022/03/07 09:45:10;;;;;;;13.27;8.87;;;;;;;1.86;59.72;102717.63;5037795;28;20060;-57
2022/03/07 09:47:39;;;;;;;14.03;8.90;;;;;;;1.93;59.58;102716.47;5026004;28;20097;-56
2022/03/07 09:50:05;;;;;;;15.83;9.10;;;;;;;1.98;60.05;102717.16;5024134;28;20052;-58
2022/03/07 09:52:30;;;;;;;13.60;8.87;;;;;;;2.04;59.80;102702.13;5025474;28;20021;-57
2022/03/07 09:54:56;;;;;;;12.87;8.17;;;;;;;2.07;58.81;102718.56;5027923;28;20021;-58
2022/03/07 09:57:21;;;;;;;11.33;8.07;;;;;;;2.12;58.00;102710.56;5024136;28;20032;-57
2022/03/07 09:59:46;;;;;;;11.83;8.00;;;;;;;2.14;58.20;102711.34;5025561;28;20116;-57
2022/03/07 10:02:14;;;;;;;11.83;8.20;;;;;;;2.24;58.58;102707.47;5028005;28;20029;-58
2022/03/07 10:04:42;;;;;;;12.47;7.50;;;;;;;2.27;56.84;102696.03;5026326;28;20159;-58
2022/03/07 10:07:07;;;;;;;12.17;7.27;;;;;;;2.31;56.52;102694.13;5026870;28;20435;-57
2022/03/07 10:09:33;;;;;;;9.73;7.30;;;;;;;2.36;56.92;102687.78;5023456;28;20129;-57
2022/03/07 10:12:00;;;;;;;13.70;7.20;;;;;;;2.44;56.66;102695.34;5029779;28;20048;-57
2022/03/07 10:14:51;;;;;;;10.23;6.93;;;;;;;2.54;57.37;102690.56;5023021;28;20037;-58
2022/03/07 10:17:20;;;;;;;11.13;6.77;;;;;;;2.59;55.78;102687.75;5024334;28;20055;-58
2022/03/07 10:19:47;;;;;;;9.67;6.80;;;;;;;2.60;55.82;102697.31;5021989;28;20026;-57
2022/03/07 10:22:16;;;;;;;12.10;6.80;;;;;;;2.66;56.48;102689.22;5028994;28;20087;-58
2022/03/07 10:24:41;;;;;;;9.50;6.77;;;;;;;2.69;55.73;102687.31;5030634;28;20056;-58
2022/03/07 10:27:06;;;;;;;12.80;6.47;;;;;;;2.73;55.11;102680.19;5025722;28;20041;-57
2022/03/07 10:29:31;;;;;;;9.93;6.80;;;;;;;2.72;54.93;102691.59;5025993;28;20029;-58
2022/03/07 10:31:59;;;;;;;10.10;6.50;;;;;;;2.73;55.75;102690.66;5027213;28;20072;-58
2022/03/07 10:34:26;;;;;;;7.90;6.03;;;;;;;2.78;54.98;102687.84;5025586;28;20104;-57
2022/03/07 10:36:52;;;;;;;11.63;6.37;;;;;;;2.83;55.54;102689.34;5028663;28;20037;-57
2022/03/07 10:39:26;;;;;;;9.30;6.23;;;;;;;2.91;56.01;102680.31;5025010;28;20033;-56
2022/03/07 10:41:51;;;;;;;10.07;6.13;;;;;;;2.95;55.78;102671.41;5022243;28;20022;-57
2022/03/07 10:44:29;;;;;;;10.83;6.23;;;;;;;3.00;55.17;102666.81;5024668;28;20029;-58
2022/03/07 10:47:09;;;;;;;12.30;6.37;;;;;;;3.01;54.40;102663.28;5025095;28;20041;-58
2022/03/07 10:49:34;;;;;;;12.17;6.57;;;;;;;3.03;53.89;102655.34;5021378;28;20045;-58
2022/03/07 10:52:03;;;;;;;12.10;6.53;;;;;;;3.02;54.02;102659.75;5027235;28;20042;-57
2022/03/07 10:54:28;;;;;;;10.97;6.30;;;;;;;3.04;53.46;102663.16;5019959;28;20033;-58
2022/03/07 10:56:55;;;;;;;10.60;6.50;;;;;;;2.98;53.79;102636.34;5029479;28;20030;-57
2022/03/07 10:59:27;;;;;;;9.87;6.23;;;;;;;3.18;54.33;102638.94;5027294;28;20036;-57
2022/03/07 11:02:02;;;;;;;13.17;7.17;;;;;;;3.28;54.08;102638.53;5025648;28;20358;-57
2022/03/07 11:04:27;;;;;;;10.23;6.50;;;;;;;3.35;53.88;102632.94;5025075;28;20037;-57
2022/03/07 11:06:53;;;;;;;11.90;6.93;;;;;;;3.40;53.34;102631.88;5026809;28;20046;-58